createdAt,value
2023-04-15T00:01:13.355Z,7.20
2023-04-15T00:03:41.279Z,7.20
2023-04-15T00:06:08.749Z,7.20
2023-04-15T00:08:35.977Z,7.30
2023-04-15T00:11:06.002Z,7.30
2023-04-15T00:13:34.217Z,7.30
2023-04-15T00:16:02.315Z,7.40
2023-04-15T00:18:30.106Z,7.40
2023-04-15T00:20:57.521Z,7.40
2023-04-15T00:23:26.051Z,7.40
2023-04-15T00:25:53.239Z,7.40
2023-04-15T00:28:21.051Z,7.40
2023-04-15T00:30:48.471Z,7.40
2023-04-15T00:33:16.680Z,7.40
2023-04-15T00:35:44.075Z,7.40
2023-04-15T00:38:11.671Z,7.40
2023-04-15T00:40:39.119Z,7.40
2023-04-15T00:43:07.110Z,7.40
2023-04-15T00:45:34.327Z,7.40
2023-04-15T00:48:02.391Z,7.30
2023-04-15T00:50:29.621Z,7.30
2023-04-15T00:52:57.166Z,7.30
2023-04-15T00:55:24.362Z,7.30
2023-04-15T00:57:52.228Z,7.30
2023-04-15T01:00:20.622Z,7.30
2023-04-15T01:02:47.943Z,7.30
2023-04-15T01:05:18.625Z,7.30
2023-04-15T01:07:47.909Z,7.20
2023-04-15T01:10:15.354Z,7.10
2023-04-15T01:12:43.377Z,7.10
2023-04-15T01:15:11.250Z,7.10
2023-04-15T01:17:39.953Z,7.10
2023-04-15T01:20:10.632Z,7.10
2023-04-15T01:22:38.413Z,7.10
2023-04-15T01:25:22.676Z,7.10
2023-04-15T01:27:49.908Z,7.10
2023-04-15T01:30:17.345Z,7.10
2023-04-15T01:32:44.622Z,7.00
2023-04-15T01:35:11.846Z,7.00
2023-04-15T01:37:39.069Z,7.00
2023-04-15T01:40:08.021Z,7.00
2023-04-15T01:42:37.500Z,7.00
2023-04-15T01:45:05.488Z,7.00
2023-04-15T01:47:32.773Z,7.00
2023-04-15T01:50:00.008Z,7.00
2023-04-15T01:52:27.254Z,7.00
2023-04-15T01:54:54.457Z,7.00
2023-04-15T01:57:22.024Z,7.00
2023-04-15T01:59:49.308Z,7.00
2023-04-15T02:02:17.539Z,7.00
2023-04-15T02:04:45.424Z,7.00
2023-04-15T02:07:12.613Z,7.00
2023-04-15T02:09:39.805Z,7.00
2023-04-15T02:12:07.124Z,7.00
2023-04-15T02:14:34.354Z,7.00
2023-04-15T02:17:07.326Z,7.00
2023-04-15T02:19:35.617Z,7.00
2023-04-15T02:22:02.866Z,7.00
2023-04-15T02:24:31.296Z,7.00
2023-04-15T02:26:58.851Z,6.90
2023-04-15T02:29:26.300Z,7.00
2023-04-15T02:31:53.559Z,6.90
2023-04-15T02:34:20.884Z,6.90
2023-04-15T02:36:49.663Z,6.90
2023-04-15T02:39:18.615Z,7.00
2023-04-15T02:41:51.839Z,7.00
2023-04-15T02:44:20.538Z,7.00
2023-04-15T02:46:52.713Z,7.00
2023-04-15T02:49:20.233Z,7.00
2023-04-15T02:51:51.310Z,7.00
2023-04-15T02:54:20.759Z,7.00
2023-04-15T02:56:48.033Z,7.00
2023-04-15T02:59:15.360Z,7.00
2023-04-15T03:01:42.739Z,7.00
2023-04-15T03:04:10.616Z,7.00
2023-04-15T03:06:37.863Z,6.90
2023-04-15T03:09:05.574Z,6.90
2023-04-15T03:11:35.410Z,6.90
2023-04-15T03:14:03.522Z,6.90
2023-04-15T03:16:30.851Z,7.00
2023-04-15T03:18:58.017Z,6.90
2023-04-15T03:21:26.775Z,6.90
2023-04-15T03:23:54.008Z,6.90
2023-04-15T03:26:31.723Z,7.00
2023-04-15T03:28:59.284Z,7.00
2023-04-15T03:31:26.759Z,7.00
2023-04-15T03:33:54.116Z,7.00
2023-04-15T03:36:21.321Z,7.00
2023-04-15T03:38:49.433Z,7.00
2023-04-15T03:41:16.728Z,7.00
2023-04-15T03:43:43.914Z,7.00
2023-04-15T03:46:11.169Z,7.10
2023-04-15T03:48:38.488Z,7.10
2023-04-15T03:51:05.966Z,7.10
2023-04-15T03:53:33.150Z,7.10
2023-04-15T03:56:00.329Z,7.10
2023-04-15T03:58:27.523Z,7.20
2023-04-15T04:00:55.089Z,7.20
2023-04-15T04:03:22.554Z,7.20
2023-04-15T04:05:51.664Z,7.30
2023-04-15T04:08:19.655Z,7.30
2023-04-15T04:10:46.854Z,7.30
2023-04-15T04:13:14.034Z,7.30
2023-04-15T04:15:41.463Z,7.30
2023-04-15T04:18:08.796Z,7.30
2023-04-15T04:20:36.281Z,7.40
2023-04-15T04:23:03.467Z,7.40
2023-04-15T04:25:30.638Z,7.40
2023-04-15T04:27:57.928Z,7.50
2023-04-15T04:30:25.376Z,7.50
2023-04-15T04:32:52.748Z,7.50
2023-04-15T04:35:20.064Z,7.50
2023-04-15T04:37:47.399Z,7.60
2023-04-15T04:40:14.733Z,7.60
2023-04-15T04:42:41.987Z,7.60
2023-04-15T04:45:10.159Z,7.70
2023-04-15T04:47:37.453Z,7.80
2023-04-15T04:50:05.173Z,7.80
2023-04-15T04:52:32.502Z,7.80
2023-04-15T04:54:59.686Z,7.80
2023-04-15T04:57:26.817Z,7.80
2023-04-15T04:59:54.084Z,7.90
2023-04-15T05:02:21.657Z,7.90
2023-04-15T05:04:50.418Z,8.00
2023-04-15T05:07:17.618Z,8.00
2023-04-15T05:09:44.766Z,8.00
2023-04-15T05:12:15.074Z,8.10
2023-04-15T05:14:42.491Z,8.10
2023-04-15T05:17:10.025Z,8.10
2023-04-15T05:19:37.194Z,8.10
2023-04-15T05:22:04.463Z,8.20
2023-04-15T05:24:31.688Z,8.20
2023-04-15T05:26:58.880Z,8.10
2023-04-15T05:29:26.334Z,8.20
2023-04-15T05:31:53.504Z,8.20
2023-04-15T05:34:20.759Z,8.20
2023-04-15T05:36:48.070Z,8.20
2023-04-15T05:39:15.522Z,8.20
2023-04-15T05:41:42.803Z,8.20
2023-04-15T05:44:10.084Z,8.20
2023-04-15T05:46:37.485Z,8.30
2023-04-15T05:49:04.732Z,8.30
2023-04-15T05:51:32.065Z,8.30
2023-04-15T05:53:59.338Z,8.30
2023-04-15T05:56:27.181Z,8.30
2023-04-15T05:58:54.537Z,8.30
2023-04-15T06:01:22.334Z,8.30
2023-04-15T06:03:49.751Z,8.40
2023-04-15T06:06:17.095Z,8.40
2023-04-15T06:08:44.270Z,8.40
2023-04-15T06:11:11.465Z,8.50
2023-04-15T06:13:38.654Z,8.60
2023-04-15T06:16:06.375Z,8.70
2023-04-15T06:18:33.687Z,8.80
2023-04-15T06:21:01.045Z,8.90
2023-04-15T06:23:28.407Z,9.10
2023-04-15T06:25:55.607Z,9.20
2023-04-15T06:28:22.757Z,9.40
2023-04-15T06:30:50.020Z,9.50
2023-04-15T06:33:17.714Z,9.60
2023-04-15T06:35:44.910Z,9.70
2023-04-15T06:38:12.355Z,9.90
2023-04-15T06:40:39.567Z,10.00
2023-04-15T06:43:08.073Z,10.00
2023-04-15T06:45:35.429Z,10.00
2023-04-15T06:48:02.675Z,10.00
2023-04-15T06:50:30.094Z,10.00
2023-04-15T06:52:57.436Z,10.00
2023-04-15T06:55:24.620Z,9.90
2023-04-15T06:57:51.797Z,10.00
2023-04-15T07:00:19.453Z,10.00
2023-04-15T07:02:46.890Z,10.10
2023-04-15T07:05:14.347Z,10.20
2023-04-15T07:07:42.312Z,10.30
2023-04-15T07:10:10.213Z,10.40
2023-04-15T07:12:38.599Z,10.60
2023-04-15T07:15:06.855Z,10.80
2023-04-15T07:17:34.399Z,10.90
2023-04-15T07:20:01.632Z,11.00
2023-04-15T07:22:28.919Z,11.10
2023-04-15T07:24:56.418Z,11.00
2023-04-15T07:27:25.662Z,10.80
2023-04-15T07:29:53.304Z,10.70
2023-04-15T07:32:20.971Z,10.50
2023-04-15T07:34:48.179Z,10.40
2023-04-15T07:37:15.818Z,10.40
2023-04-15T07:39:43.717Z,10.40
2023-04-15T07:42:11.024Z,10.50
2023-04-15T07:44:38.252Z,10.50
2023-04-15T07:47:05.500Z,10.60
2023-04-15T07:49:32.741Z,10.70
2023-04-15T07:52:00.623Z,10.70
2023-04-15T07:54:27.857Z,10.70
2023-04-15T07:56:56.137Z,10.70
2023-04-15T07:59:23.404Z,10.70
2023-04-15T08:01:50.678Z,10.70
2023-04-15T08:04:18.144Z,10.80
2023-04-15T08:06:45.691Z,10.90
2023-04-15T08:09:12.874Z,11.00
2023-04-15T08:11:41.228Z,11.10
2023-04-15T08:14:08.461Z,11.20
2023-04-15T08:16:35.969Z,11.30
2023-04-15T08:19:03.737Z,11.40
2023-04-15T08:21:31.558Z,11.40
2023-04-15T08:23:58.852Z,11.30
2023-04-15T08:26:26.513Z,11.30
2023-04-15T08:28:53.841Z,11.30
2023-04-15T08:31:22.013Z,11.30
2023-04-15T08:33:49.389Z,11.20
2023-04-15T08:36:16.617Z,11.20
2023-04-15T08:38:45.688Z,11.10
2023-04-15T08:41:27.429Z,11.10
2023-04-15T08:44:01.459Z,11.10
2023-04-15T08:46:30.211Z,11.20
2023-04-15T08:48:58.997Z,11.30
2023-04-15T08:51:27.305Z,11.50
2023-04-15T08:53:55.024Z,11.70
2023-04-15T08:56:29.242Z,12.00
2023-04-15T08:58:57.433Z,12.30
2023-04-15T09:01:25.772Z,12.70
2023-04-15T09:03:57.233Z,13.00
2023-04-15T09:06:25.808Z,13.20
2023-04-15T09:08:53.101Z,13.50
2023-04-15T09:11:22.803Z,13.80
2023-04-15T09:13:50.865Z,14.10
2023-04-15T09:16:18.884Z,14.30
2023-04-15T09:18:46.265Z,14.50
2023-04-15T09:21:17.480Z,14.90
2023-04-15T09:24:02.672Z,15.10
2023-04-15T09:26:40.432Z,15.10
2023-04-15T09:29:10.026Z,15.10
2023-04-15T09:31:38.005Z,15.20
2023-04-15T09:34:05.784Z,15.00
2023-04-15T09:36:50.415Z,14.90
2023-04-15T09:39:18.299Z,14.80
2023-04-15T09:41:46.033Z,14.70
2023-04-15T09:44:27.064Z,14.70
2023-04-15T09:46:54.282Z,14.60
2023-04-15T09:49:21.596Z,14.60
2023-04-15T09:52:04.114Z,14.70
2023-04-15T09:54:38.679Z,14.80
2023-04-15T09:57:10.473Z,14.70
2023-04-15T09:59:37.881Z,14.60
2023-04-15T10:02:07.650Z,14.50
2023-04-15T10:04:41.005Z,14.50
2023-04-15T10:07:10.024Z,14.50
2023-04-15T10:09:39.626Z,14.40
2023-04-15T10:12:07.462Z,14.40
2023-04-15T10:14:41.558Z,14.30
2023-04-15T10:17:14.825Z,14.30
2023-04-15T10:19:42.668Z,14.30
2023-04-15T10:22:10.574Z,14.30
2023-04-15T10:24:40.545Z,14.20
2023-04-15T10:27:08.695Z,14.10
2023-04-15T10:29:36.633Z,14.00
2023-04-15T10:32:04.938Z,14.00
2023-04-15T10:34:33.371Z,13.90
2023-04-15T10:37:04.502Z,14.00
2023-04-15T10:39:34.764Z,14.10
2023-04-15T10:42:19.382Z,14.20
2023-04-15T10:44:52.284Z,14.30
2023-04-15T10:47:21.725Z,14.40
2023-04-15T10:50:02.618Z,14.40
2023-04-15T10:52:30.482Z,14.40
2023-04-15T10:55:14.438Z,14.30
2023-04-15T10:57:43.209Z,14.30
2023-04-15T11:00:18.014Z,14.30
2023-04-15T11:02:53.636Z,14.20
2023-04-15T11:05:43.235Z,14.20
2023-04-15T11:08:15.195Z,14.20
2023-04-15T11:10:42.492Z,14.20
2023-04-15T11:13:12.700Z,14.20
2023-04-15T11:15:47.319Z,14.20
2023-04-15T11:18:25.888Z,14.20
2023-04-15T11:21:06.025Z,14.30
2023-04-15T11:23:38.898Z,14.30
2023-04-15T11:26:14.947Z,14.30
2023-04-15T11:28:45.295Z,14.30
2023-04-15T11:34:05.423Z,14.30
2023-04-15T11:34:21.210Z,14.30
2023-04-15T11:36:33.130Z,14.30
2023-04-15T11:39:00.910Z,14.20
2023-04-15T11:41:28.177Z,14.20
2023-04-15T11:43:55.398Z,14.20
2023-04-15T11:46:30.785Z,14.20
2023-04-15T11:48:58.247Z,14.20
2023-04-15T11:51:25.510Z,14.20
2023-04-15T11:53:52.794Z,14.20
2023-04-15T11:56:26.115Z,14.30
2023-04-15T11:58:59.728Z,14.40
2023-04-15T12:01:41.383Z,14.50
2023-04-15T12:04:25.163Z,14.80
2023-04-15T12:06:53.335Z,14.90
2023-04-15T12:09:21.741Z,15.00
2023-04-15T12:11:53.921Z,15.10
2023-04-15T12:14:26.176Z,15.30
2023-04-15T12:17:03.136Z,15.40
2023-04-15T12:19:42.939Z,15.30
2023-04-15T12:22:16.583Z,15.40
2023-04-15T12:24:48.175Z,15.40
2023-04-15T12:27:17.177Z,15.50
2023-04-15T12:29:44.583Z,15.50
2023-04-15T12:32:17.693Z,15.60
2023-04-15T12:34:54.535Z,15.50
2023-04-15T12:37:22.163Z,15.50
2023-04-15T12:39:50.515Z,15.50
2023-04-15T12:42:18.757Z,15.60
2023-04-15T12:44:46.552Z,15.70
2023-04-15T12:47:14.304Z,15.70
2023-04-15T12:49:41.851Z,15.70
2023-04-15T12:52:09.196Z,15.70
2023-04-15T12:54:36.659Z,15.70
2023-04-15T12:57:06.816Z,15.70
2023-04-15T12:59:35.817Z,15.60
2023-04-15T13:02:04.150Z,15.70
2023-04-15T13:04:32.094Z,15.90
2023-04-15T13:06:59.580Z,15.90
2023-04-15T13:09:27.188Z,15.90
2023-04-15T13:11:54.710Z,16.10
2023-04-15T13:14:22.178Z,16.10
2023-04-15T13:16:49.439Z,15.90
2023-04-15T13:19:16.643Z,15.80
2023-04-15T13:21:43.904Z,15.80
2023-04-15T13:24:11.283Z,15.80
2023-04-15T13:26:38.594Z,15.60
2023-04-15T13:29:06.097Z,15.60
2023-04-15T13:31:33.384Z,15.60
2023-04-15T13:34:03.068Z,15.60
2023-04-15T13:36:30.739Z,15.70
2023-04-15T13:38:58.485Z,15.80
2023-04-15T13:41:25.978Z,15.60
2023-04-15T13:43:53.136Z,15.50
2023-04-15T13:46:20.621Z,15.40
2023-04-15T13:48:48.108Z,15.30
2023-04-15T13:51:15.492Z,15.10
2023-04-15T13:53:42.673Z,14.90
2023-04-15T13:56:10.895Z,14.70
2023-04-15T13:58:38.605Z,14.50
2023-04-15T14:01:07.442Z,14.30
2023-04-15T14:03:36.569Z,14.10
2023-04-15T14:06:05.866Z,13.90
2023-04-15T14:08:33.686Z,13.70
2023-04-15T14:11:01.132Z,13.60
2023-04-15T14:13:28.603Z,13.50
2023-04-15T14:15:57.555Z,13.30
2023-04-15T14:18:25.316Z,13.20
2023-04-15T14:20:52.697Z,13.30
2023-04-15T14:23:20.134Z,13.40
2023-04-15T14:25:48.451Z,13.50
2023-04-15T14:28:16.089Z,13.60
2023-04-15T14:30:43.935Z,13.80
2023-04-15T14:33:11.539Z,13.80
2023-04-15T14:35:40.633Z,13.90
2023-04-15T14:38:10.985Z,14.20
2023-04-15T14:40:39.147Z,14.30
2023-04-15T14:43:06.516Z,14.40
2023-04-15T14:45:33.945Z,14.40
2023-04-15T14:48:01.639Z,14.10
2023-04-15T14:50:28.920Z,13.90
2023-04-15T14:52:56.110Z,13.70
2023-04-15T14:55:23.379Z,13.60
2023-04-15T14:57:50.640Z,13.60
2023-04-15T15:00:18.106Z,13.50
2023-04-15T15:02:47.683Z,13.60
2023-04-15T15:05:16.447Z,13.50
2023-04-15T15:07:43.925Z,13.40
2023-04-15T15:10:11.222Z,13.30
2023-04-15T15:12:38.589Z,13.20
2023-04-15T15:15:15.528Z,13.20
2023-04-15T15:17:53.846Z,13.10
2023-04-15T15:20:21.791Z,13.10
2023-04-15T15:22:49.175Z,13.00
2023-04-15T15:25:16.700Z,13.20
2023-04-15T15:27:44.074Z,13.30
2023-04-15T15:30:12.753Z,13.40
2023-04-15T15:32:41.944Z,13.50
2023-04-15T15:35:10.347Z,13.60
2023-04-15T15:37:38.374Z,13.70
2023-04-15T15:40:07.119Z,13.80
2023-04-15T15:42:35.055Z,13.90
2023-04-15T15:45:04.836Z,13.80
2023-04-15T15:47:32.188Z,13.90
2023-04-15T15:50:02.344Z,14.00
2023-04-15T15:52:30.856Z,14.00
2023-04-15T15:54:58.149Z,14.00
2023-04-15T15:57:25.400Z,14.00
2023-04-15T16:00:04.813Z,14.10
2023-04-15T16:03:04.381Z,14.10
2023-04-15T16:05:25.377Z,14.10
2023-04-15T16:07:52.761Z,14.20
2023-04-15T16:10:20.016Z,14.10
2023-04-15T16:12:47.414Z,14.10
2023-04-15T16:15:14.835Z,14.20
2023-04-15T16:17:42.147Z,14.20
2023-04-15T16:20:10.121Z,14.10
2023-04-15T16:22:37.642Z,14.10
2023-04-15T16:25:05.485Z,14.10
2023-04-15T16:27:33.828Z,14.10
2023-04-15T16:30:03.068Z,14.10
2023-04-15T16:32:30.725Z,14.00
2023-04-15T16:34:57.981Z,14.00
2023-04-15T16:37:25.474Z,14.10
2023-04-15T16:39:55.635Z,14.10
2023-04-15T16:42:23.091Z,14.00
2023-04-15T16:44:50.385Z,13.90
2023-04-15T16:47:17.688Z,13.80
2023-04-15T16:49:44.910Z,13.70
2023-04-15T16:52:12.146Z,13.50
2023-04-15T16:54:41.615Z,13.40
2023-04-15T16:57:09.221Z,13.30
2023-04-15T16:59:37.854Z,13.20
2023-04-15T17:02:05.199Z,13.00
2023-04-15T17:04:32.743Z,12.90
2023-04-15T17:07:00.125Z,12.80
2023-04-15T17:09:27.333Z,12.70
2023-04-15T17:11:54.611Z,12.60
2023-04-15T17:14:21.887Z,12.40
2023-04-15T17:16:49.175Z,12.40
2023-04-15T17:19:16.380Z,12.20
2023-04-15T17:21:43.609Z,12.10
2023-04-15T17:24:11.011Z,12.00
2023-04-15T17:26:38.380Z,11.80
2023-04-15T17:29:05.886Z,11.70
2023-04-15T17:31:33.471Z,11.50
2023-04-15T17:34:08.046Z,11.40
2023-04-15T17:36:37.044Z,11.20
2023-04-15T17:39:04.649Z,11.10
2023-04-15T17:41:32.105Z,11.00
2023-04-15T17:43:59.411Z,10.80
2023-04-15T17:46:27.420Z,10.80
2023-04-15T17:48:54.670Z,10.70
2023-04-15T17:51:21.836Z,10.60
2023-04-15T17:53:49.138Z,10.40
2023-04-15T17:56:16.435Z,10.30
2023-04-15T17:58:43.931Z,10.30
2023-04-15T18:01:11.136Z,10.20
2023-04-15T18:03:38.468Z,10.10
2023-04-15T18:06:06.416Z,10.00
2023-04-15T18:08:33.782Z,9.90
2023-04-15T18:11:01.115Z,9.90
2023-04-15T18:13:28.478Z,9.80
2023-04-15T18:15:56.481Z,9.80
2023-04-15T18:18:25.123Z,9.70
2023-04-15T18:20:52.406Z,9.60
2023-04-15T18:23:19.724Z,9.60
2023-04-15T18:25:47.008Z,9.60
2023-04-15T18:28:15.823Z,9.50
2023-04-15T18:30:42.997Z,9.50
2023-04-15T18:33:10.212Z,9.50
2023-04-15T18:35:37.430Z,9.40
2023-04-15T18:38:04.801Z,9.40
2023-04-15T18:40:32.007Z,9.40
2023-04-15T18:42:59.168Z,9.40
2023-04-15T18:45:26.523Z,9.30
2023-04-15T18:47:53.984Z,9.30
2023-04-15T18:50:21.292Z,9.30
2023-04-15T18:52:48.554Z,9.20
2023-04-15T18:55:18.513Z,9.20
2023-04-15T18:57:46.740Z,9.20
2023-04-15T19:00:17.192Z,9.20
2023-04-15T19:02:44.621Z,9.10
2023-04-15T19:05:11.996Z,9.10
2023-04-15T19:07:39.442Z,9.10
2023-04-15T19:10:08.252Z,9.10
2023-04-15T19:12:36.639Z,9.10
2023-04-15T19:15:04.507Z,9.00
2023-04-15T19:17:31.944Z,9.00
2023-04-15T19:19:59.322Z,8.90
2023-04-15T19:22:29.423Z,8.90
2023-04-15T19:24:56.774Z,8.80
2023-04-15T19:27:24.043Z,8.80
2023-04-15T19:29:51.251Z,8.80
2023-04-15T19:32:18.589Z,8.80
2023-04-15T19:34:46.077Z,8.70
2023-04-15T19:37:13.990Z,8.70
2023-04-15T19:39:41.333Z,8.70
2023-04-15T19:42:08.564Z,8.70
2023-04-15T19:44:37.263Z,8.60
2023-04-15T19:47:04.636Z,8.60
2023-04-15T19:49:31.853Z,8.60
2023-04-15T19:51:59.030Z,8.50
2023-04-15T19:54:26.533Z,8.50
2023-04-15T19:56:53.761Z,8.40
2023-04-15T19:59:21.002Z,8.40
2023-04-15T20:01:48.364Z,8.40
2023-04-15T20:04:15.732Z,8.30
2023-04-15T20:06:43.168Z,8.30
2023-04-15T20:09:11.544Z,8.30
2023-04-15T20:12:05.649Z,8.30
2023-04-15T20:14:26.615Z,8.30
2023-04-15T20:16:53.862Z,8.20
2023-04-15T20:19:21.081Z,8.20
2023-04-15T20:21:49.033Z,8.20
2023-04-15T20:24:17.036Z,8.20
2023-04-15T20:26:44.296Z,8.10
2023-04-15T20:29:11.567Z,8.10
2023-04-15T20:31:38.879Z,8.10
2023-04-15T20:34:06.404Z,8.10
2023-04-15T20:36:34.804Z,8.10
2023-04-15T20:39:01.877Z,8.10
2023-04-15T20:41:29.164Z,8.20
2023-04-15T20:43:56.445Z,8.10
2023-04-15T20:46:25.903Z,8.10
2023-04-15T20:48:54.500Z,8.10
2023-04-15T20:51:21.727Z,8.10
2023-04-15T20:53:49.747Z,8.00
2023-04-15T20:56:16.924Z,8.00
2023-04-15T20:58:44.122Z,8.00
2023-04-15T21:01:11.435Z,8.00
2023-04-15T21:03:38.812Z,8.00
2023-04-15T21:06:06.082Z,8.00
2023-04-15T21:08:33.299Z,8.00
2023-04-15T21:11:00.474Z,8.00
2023-04-15T21:13:27.758Z,8.00
2023-04-15T21:15:55.032Z,8.00
2023-04-15T21:18:23.281Z,8.00
2023-04-15T21:21:00.988Z,8.00
2023-04-15T21:23:29.900Z,8.00
2023-04-15T21:25:58.848Z,8.00
2023-04-15T21:28:28.114Z,8.00
2023-04-15T21:30:56.552Z,8.00
2023-04-15T21:33:24.133Z,8.00
2023-04-15T21:35:53.083Z,8.00
2023-04-15T21:38:23.159Z,7.90
2023-04-15T21:40:51.283Z,7.90
2023-04-15T21:43:18.693Z,7.90
2023-04-15T21:45:49.217Z,7.90
2023-04-15T21:48:33.199Z,7.80
2023-04-15T21:51:01.703Z,7.80
2023-04-15T21:53:28.966Z,7.80
2023-04-15T21:55:56.243Z,7.70
2023-04-15T21:58:23.511Z,7.60
2023-04-15T22:00:52.307Z,7.60
2023-04-15T22:03:19.905Z,7.60
2023-04-15T22:05:47.250Z,7.60
2023-04-15T22:08:14.546Z,7.50
2023-04-15T22:10:41.769Z,7.50
2023-04-15T22:13:11.110Z,7.40
2023-04-15T22:15:38.991Z,7.40
2023-04-15T22:18:06.628Z,7.40
2023-04-15T22:20:34.034Z,7.40
2023-04-15T22:23:03.946Z,7.30
2023-04-15T22:25:31.676Z,7.30
2023-04-15T22:27:58.941Z,7.30
2023-04-15T22:30:26.402Z,7.30
2023-04-15T22:32:53.658Z,7.20
2023-04-15T22:35:21.068Z,7.20
2023-04-15T22:37:48.309Z,7.20
2023-04-15T22:40:15.996Z,7.20
2023-04-15T22:42:43.236Z,7.20
2023-04-15T22:45:10.724Z,7.10
2023-04-15T22:47:38.186Z,7.10
2023-04-15T22:50:06.934Z,7.10
2023-04-15T22:52:34.156Z,7.10
2023-04-15T22:55:01.586Z,7.10
2023-04-15T22:57:29.252Z,7.00
2023-04-15T22:59:56.859Z,7.00
2023-04-15T23:02:24.548Z,7.00
2023-04-15T23:04:52.068Z,7.00
2023-04-15T23:07:19.328Z,7.00
2023-04-15T23:09:46.553Z,6.90
2023-04-15T23:12:14.091Z,6.90
2023-04-15T23:14:41.380Z,6.90
2023-04-15T23:17:08.618Z,6.80
2023-04-15T23:19:35.940Z,6.80
2023-04-15T23:22:03.400Z,6.80
2023-04-15T23:24:30.684Z,6.80
2023-04-15T23:26:57.903Z,6.70
2023-04-15T23:29:25.125Z,6.70
2023-04-15T23:31:52.397Z,6.70
2023-04-15T23:34:19.630Z,6.70
2023-04-15T23:36:47.651Z,6.60
2023-04-15T23:39:14.867Z,6.60
2023-04-15T23:41:42.065Z,6.60
2023-04-15T23:44:09.840Z,6.50
2023-04-15T23:46:37.093Z,6.50
2023-04-15T23:49:04.428Z,6.50
2023-04-15T23:51:31.608Z,6.40
2023-04-15T23:53:58.853Z,6.40
2023-04-15T23:56:26.146Z,6.40
2023-04-15T23:58:53.342Z,6.40
